Burwash, Yukon

Past 24 Hour Conditions

This table is a summary of hourly weather conditions for the past 24 hours. This summary includes the following parameters: temperature, humidity, dew point, wind speed and direction, air pressure, visibility and/or wind chill and humidex.
Date / Time
(PDT)
Conditions Temp (°C) Humidity (%) Dew Point (°C) Wind (km/h) Pressure (kPa) Visibility (km)
17 April 2014
1:00 N/A -2 80 -5 N/A 100.2 N/A
00:00 N/A -1 80 -4 N/A 100.2 N/A
16 April 2014
23:00 N/A 0 81 -3 N/A 100.2 N/A
22:00 N/A 3 64 -4 N/A 100.3 N/A
21:00 N/A 3 62 -3 N/A 100.3 N/A
20:00 N/A 4 59 -4 N/A 100.4 N/A
19:00 N/A 5 60 -3 N/A 100.4 N/A
18:00 N/A 7   43 -5 N/A 100.4 N/A
17:00 N/A 7   39 -6 N/A 100.5 N/A
16:00 N/A 7   37 -7 N/A 100.5 N/A
15:00 N/A 7   36 -7 N/A 100.6 N/A
14:00 N/A 7   42 -5 N/A 100.7 N/A
13:00 N/A 6 46 -5 N/A 100.8 N/A
12:00 N/A 4 56 -4 N/A 100.8 N/A
11:00 N/A 3 62 -4 N/A 100.9 N/A
10:00 N/A 1 70 -4 N/A 101.0 N/A
9:00 N/A -3 87 -5 N/A 101.0 N/A
8:00 N/A -7 94 -8 N/A 101.1 N/A
7:00 N/A -8   93 -9 N/A 101.1 N/A
6:00 N/A -8   93 -9 N/A 101.1 N/A
5:00 N/A -7 89 -9 N/A 101.1 N/A
4:00 N/A -6 88 -8 N/A 101.1 N/A
3:00 N/A -4 88 -6 N/A 101.1 N/A
2:00 N/A -3 80 -6 N/A 101.0 N/A
1:00 N/A 0 67 -5 N/A 101.0 N/A
N/A
Not available
 ↑ 
Highest temperature
 ↓ 
Lowest temperature

If you require additional historical weather information, please visit Climate Data Online.